Time;durP1;ratioP1;P1;durP2;ratioP2;P2;SDS_P1;SDS_P2;PMS_P1;PMS_P2;Temp;Humidity;BMP_temperature;BMP_pressure;BME280_temperature;BME280_humidity;BME280_pressure;Samples;Min_cycle;Max_cycle;Signal;HPM_P1;HPM_P2
2023/03/25 00:01:31;;;;;;;24.07;13.27;;;7.00;99.90;;;;;;10424438;28;20205;-75
2023/03/25 00:06:55;;;;;;;16.70;8.33;;;7.00;99.90;;;;;;10438178;28;20292;-75
2023/03/25 00:12:16;;;;;;;11.43;7.10;;;6.90;99.90;;;;;;10438129;28;20189;-75
2023/03/25 00:17:39;;;;;;;10.87;6.93;;;6.90;99.90;;;;;;10416756;28;20202;-75
2023/03/25 00:23:00;;;;;;;19.80;12.33;;;6.90;99.90;;;;;;10438831;28;20266;-76
2023/03/25 00:28:23;;;;;;;23.03;11.70;;;6.90;99.90;;;;;;10437476;28;20222;-77
2023/03/25 00:33:45;;;;;;;14.80;6.93;;;6.80;99.90;;;;;;10438368;28;20375;-77
2023/03/25 00:39:07;;;;;;;9.13;5.80;;;6.70;99.90;;;;;;10438123;28;20355;-77
2023/03/25 00:44:29;;;;;;;12.07;7.57;;;6.70;99.90;;;;;;10437740;28;20300;-77
2023/03/25 00:49:50;;;;;;;14.07;7.87;;;6.70;99.90;;;;;;10436988;28;20194;-77
2023/03/25 00:55:11;;;;;;;14.93;7.10;;;6.70;99.90;;;;;;10422727;28;20238;-77
2023/03/25 01:00:33;;;;;;;11.20;6.50;;;6.70;99.90;;;;;;10436258;28;20209;-75
2023/03/25 01:05:55;;;;;;;10.93;5.30;;;6.70;99.90;;;;;;10435798;28;20430;-75
2023/03/25 01:11:19;;;;;;;8.17;5.60;;;6.70;99.90;;;;;;10436780;28;20200;-75
2023/03/25 01:16:43;;;;;;;13.93;7.93;;;6.70;99.90;;;;;;10421276;28;20210;-78
2023/03/25 01:22:04;;;;;;;11.97;6.50;;;6.70;99.90;;;;;;10431791;28;20192;-76
2023/03/25 01:27:25;;;;;;;16.10;7.43;;;6.60;99.90;;;;;;10435782;28;20223;-76
2023/03/25 01:32:47;;;;;;;18.63;8.10;;;6.60;99.90;;;;;;10436484;28;20773;-75
2023/03/25 01:38:08;;;;;;;14.43;6.50;;;6.60;99.90;;;;;;10436274;28;20290;-75
2023/03/25 01:43:30;;;;;;;18.83;9.07;;;6.50;99.90;;;;;;10434838;28;20568;-76
2023/03/25 01:48:52;;;;;;;9.57;6.13;;;6.50;99.90;;;;;;10435685;28;20445;-76
2023/03/25 01:54:16;;;;;;;13.10;7.13;;;6.50;99.90;;;;;;10435770;28;20216;-76
2023/03/25 01:59:39;;;;;;;8.23;5.67;;;6.40;99.90;;;;;;10434889;28;20205;-74
2023/03/25 02:05:16;;;;;;;12.70;6.57;;;6.40;99.90;;;;;;10434500;28;20223;-76
2023/03/25 02:10:37;;;;;;;10.33;6.43;;;6.40;99.90;;;;;;10420397;28;20196;-75
2023/03/25 02:16:46;;;;;;;10.47;5.87;;;6.40;99.90;;;;;;10425860;28;20547;-75
2023/03/25 02:22:36;;;;;;;8.87;5.87;;;6.40;99.90;;;;;;10431546;28;20375;-76
2023/03/25 02:28:35;;;;;;;13.90;7.63;;;6.50;99.90;;;;;;10434825;28;20535;-76
2023/03/25 02:34:34;;;;;;;9.30;6.33;;;6.40;99.90;;;;;;10434227;28;20215;-77
2023/03/25 02:39:59;;;;;;;7.63;5.93;;;6.50;99.90;;;;;;10459005;28;20206;-77
2023/03/25 02:45:31;;;;;;;9.23;5.93;;;6.50;99.90;;;;;;10463866;28;20298;-76
2023/03/25 02:50:57;;;;;;;10.60;6.33;;;6.50;99.90;;;;;;10449775;28;20208;-77
2023/03/25 02:56:22;;;;;;;10.40;5.97;;;6.50;99.90;;;;;;10480046;28;20247;-78
2023/03/25 03:01:44;;;;;;;8.83;5.83;;;6.50;99.90;;;;;;10480173;28;20273;-75
2023/03/25 03:07:06;;;;;;;7.30;4.60;;;6.50;99.90;;;;;;10479524;28;20237;-76
2023/03/25 03:13:03;;;;;;;10.63;5.50;;;6.50;99.90;;;;;;10462945;28;20424;-75
2023/03/25 03:18:50;;;;;;;7.70;5.80;;;6.50;99.90;;;;;;10418780;28;20503;-78
2023/03/25 03:24:34;;;;;;;8.57;5.13;;;6.50;99.90;;;;;;10441159;28;20203;-76
2023/03/25 03:30:10;;;;;;;6.67;5.03;;;6.50;99.90;;;;;;10441105;28;20204;-77
2023/03/25 03:35:37;;;;;;;7.53;4.80;;;6.40;99.90;;;;;;10439894;28;20192;-78
2023/03/25 03:41:04;;;;;;;8.53;5.20;;;6.40;99.90;;;;;;10440205;28;20246;-77
2023/03/25 03:46:33;;;;;;;6.47;4.60;;;6.50;99.90;;;;;;10439587;28;20227;-76
2023/03/25 03:52:05;;;;;;;6.17;4.60;;;6.50;99.90;;;;;;10438801;28;20201;-78
2023/03/25 03:57:31;;;;;;;5.87;4.93;;;6.50;99.90;;;;;;10440158;28;20200;-77
2023/03/25 04:03:14;;;;;;;8.13;4.70;;;6.40;99.90;;;;;;10439640;28;20198;-78
2023/03/25 04:09:04;;;;;;;10.13;4.87;;;6.40;99.90;;;;;;10438348;28;20256;-77
2023/03/25 04:14:25;;;;;;;5.57;4.33;;;6.40;99.90;;;;;;10439223;28;20196;-77
2023/03/25 04:19:47;;;;;;;6.37;4.70;;;6.30;99.90;;;;;;10416487;28;20202;-77
2023/03/25 04:25:08;;;;;;;6.70;5.47;;;6.30;99.90;;;;;;10439030;28;20221;-76
2023/03/25 04:30:29;;;;;;;7.83;4.90;;;6.30;99.90;;;;;;10437796;28;20204;-76
2023/03/25 04:35:51;;;;;;;6.03;4.63;;;6.30;99.90;;;;;;10438494;28;20448;-78
2023/03/25 04:41:14;;;;;;;7.97;4.97;;;6.20;99.90;;;;;;10438193;28;20368;-76
2023/03/25 04:46:36;;;;;;;9.13;5.70;;;6.20;99.90;;;;;;10438107;28;20230;-78
2023/03/25 04:51:58;;;;;;;10.10;6.07;;;6.20;99.90;;;;;;10437776;28;20199;-78
2023/03/25 04:57:19;;;;;;;8.43;6.50;;;6.20;99.90;;;;;;10436572;28;20214;-76
2023/03/25 05:02:47;;;;;;;12.83;8.53;;;6.20;99.90;;;;;;10436487;28;20241;-76
2023/03/25 05:08:10;;;;;;;15.53;9.50;;;6.20;99.90;;;;;;10422353;28;20246;-75
2023/03/25 05:13:31;;;;;;;17.67;10.40;;;6.30;99.90;;;;;;10436117;28;20276;-75
2023/03/25 05:18:52;;;;;;;12.87;7.10;;;6.30;99.90;;;;;;10414535;28;20208;-78
2023/03/25 05:24:13;;;;;;;8.10;6.07;;;6.30;99.90;;;;;;10436971;28;20194;-76
2023/03/25 05:29:34;;;;;;;8.30;6.03;;;6.30;99.90;;;;;;10436765;28;20300;-78
2023/03/25 05:34:56;;;;;;;9.67;5.93;;;6.30;99.90;;;;;;10435575;28;20204;-78
2023/03/25 05:40:17;;;;;;;10.87;5.90;;;6.40;99.90;;;;;;10436390;28;20196;-77
2023/03/25 05:45:38;;;;;;;12.27;6.27;;;6.40;99.90;;;;;;10435335;28;20225;-78
2023/03/25 05:51:03;;;;;;;5.80;4.97;;;6.50;99.90;;;;;;10436112;28;20193;-79
2023/03/25 05:56:24;;;;;;;12.13;5.50;;;6.50;99.90;;;;;;10436026;28;20217;-77
2023/03/25 06:01:46;;;;;;;7.93;4.60;;;6.60;99.90;;;;;;10434784;28;20200;-77
2023/03/25 06:07:13;;;;;;;5.43;4.27;;;6.60;99.90;;;;;;10434764;28;20224;-78
2023/03/25 06:12:37;;;;;;;10.50;6.30;;;6.70;99.90;;;;;;10420603;28;20210;-78
2023/03/25 06:17:59;;;;;;;10.77;6.63;;;6.80;99.90;;;;;;10405872;28;20244;-76
2023/03/25 06:23:21;;;;;;;7.77;5.10;;;6.90;99.90;;;;;;10429186;28;20193;-77
2023/03/25 06:28:42;;;;;;;6.70;4.20;;;7.00;99.90;;;;;;10443621;28;20523;-77
2023/03/25 06:34:04;;;;;;;7.73;4.87;;;7.10;99.90;;;;;;10443344;28;20225;-76
2023/03/25 06:39:26;;;;;;;11.37;7.20;;;7.20;99.90;;;;;;10443308;28;20189;-78
2023/03/25 06:44:49;;;;;;;8.33;4.90;;;7.30;99.90;;;;;;10442026;28;20225;-77
2023/03/25 06:50:29;;;;;;;6.90;4.40;;;7.60;99.90;;;;;;10442841;28;20195;-77
2023/03/25 06:55:50;;;;;;;5.67;4.03;;;7.90;99.90;;;;;;10442687;28;20444;-77
2023/03/25 07:01:11;;;;;;;10.97;4.37;;;8.40;99.90;;;;;;10442668;28;20193;-76
2023/03/25 07:06:32;;;;;;;7.00;3.87;;;9.10;99.90;;;;;;10441393;28;20221;-77
2023/03/25 07:11:53;;;;;;;10.33;5.70;;;10.60;99.90;;;;;;10442022;28;20190;-78
2023/03/25 07:17:14;;;;;;;6.43;4.00;;;12.30;99.90;;;;;;10413351;28;20206;-78
2023/03/25 07:22:35;;;;;;;7.20;4.40;;;13.10;99.90;;;;;;10400649;28;20213;-77
2023/03/25 07:27:56;;;;;;;6.93;3.35;;;14.10;99.90;;;;;;10399615;28;20218;-78
2023/03/25 07:33:17;;;;;;;11.13;4.10;;;14.40;99.90;;;;;;10399359;28;20211;-79
2023/03/25 07:38:39;;;;;;;4.63;3.50;;;15.10;97.90;;;;;;10399625;28;20240;-77
2023/03/25 07:44:00;;;;;;;6.78;3.78;;;15.10;94.80;;;;;;10398951;28;20621;-78
2023/03/25 07:49:25;;;;;;;8.77;4.68;;;14.00;99.90;;;;;;10398672;28;20485;-77
2023/03/25 07:54:45;;;;;;;9.37;5.67;;;13.10;99.90;;;;;;10399499;28;20491;-78
2023/03/25 08:00:08;;;;;;;11.37;6.13;;;12.80;99.90;;;;;;10398444;28;20204;-77
2023/03/25 08:05:32;;;;;;;13.67;7.43;;;12.50;99.90;;;;;;10423751;28;20289;-79
2023/03/25 08:10:53;;;;;;;18.57;9.37;;;12.20;99.90;;;;;;10439866;28;20252;-78
2023/03/25 08:16:14;;;;;;;21.07;11.10;;;12.10;99.90;;;;;;10428738;28;20194;-77
2023/03/25 08:21:35;;;;;;;11.63;6.77;;;11.80;99.90;;;;;;10431280;28;20220;-77
2023/03/25 08:26:59;;;;;;;8.93;5.63;;;11.70;99.90;;;;;;10438799;28;20442;-75
2023/03/25 08:32:21;;;;;;;9.93;5.60;;;11.60;99.90;;;;;;10439129;28;20189;-77
2023/03/25 08:37:41;;;;;;;6.33;3.70;;;11.30;99.90;;;;;;10441472;28;20192;-79
2023/03/25 08:43:04;;;;;;;5.80;3.80;;;11.10;99.90;;;;;;10457429;28;20283;-78
2023/03/25 08:48:25;;;;;;;7.70;4.67;;;11.00;99.90;;;;;;10457419;28;20236;-77
2023/03/25 08:53:47;;;;;;;10.10;5.27;;;11.10;99.90;;;;;;10457530;28;20538;-78
2023/03/25 08:59:08;;;;;;;7.23;3.90;;;11.20;99.90;;;;;;10454142;28;20213;-76
2023/03/25 09:04:29;;;;;;;8.73;4.93;;;11.30;99.90;;;;;;10441064;28;20233;-78
2023/03/25 09:09:51;;;;;;;5.20;3.53;;;11.40;99.90;;;;;;10458309;28;20222;-78
2023/03/25 09:15:12;;;;;;;8.53;3.70;;;11.70;99.90;;;;;;10443264;28;20237;-79
2023/03/25 09:20:33;;;;;;;9.77;4.23;;;12.70;99.90;;;;;;10457420;28;20259;-79
2023/03/25 09:25:58;;;;;;;3.53;2.60;;;13.60;99.90;;;;;;10457197;28;20243;-78
2023/03/25 09:31:19;;;;;;;6.83;2.80;;;13.50;99.90;;;;;;10443851;28;20376;-78
2023/03/25 09:36:41;;;;;;;4.57;2.00;;;13.10;99.90;;;;;;10457325;28;20200;-78
2023/03/25 09:42:39;;;;;;;8.93;3.53;;;12.70;99.90;;;;;;10455678;28;20259;-78
2023/03/25 09:48:45;;;;;;;9.67;3.70;;;12.80;99.90;;;;;;10460973;28;20247;-77
2023/03/25 09:54:26;;;;;;;9.93;3.20;;;12.70;99.90;;;;;;10459863;28;20186;-76
2023/03/25 09:59:49;;;;;;;8.20;4.97;;;12.20;99.90;;;;;;10460189;28;20213;-76
2023/03/25 10:05:45;;;;;;;4.57;2.87;;;11.50;99.90;;;;;;10460236;28;20564;-78
2023/03/25 10:11:32;;;;;;;5.07;2.60;;;10.90;99.90;;;;;;10436774;28;20223;-79
2023/03/25 10:17:10;;;;;;;7.67;3.40;;;10.40;99.90;;;;;;10406141;28;20390;-78
2023/03/25 10:22:52;;;;;;;3.80;2.70;;;10.20;99.90;;;;;;10445164;28;20195;-77
2023/03/25 10:28:19;;;;;;;7.07;3.53;;;10.10;99.90;;;;;;10433145;28;20220;-79
2023/03/25 10:34:06;;;;;;;6.80;4.37;;;10.10;99.90;;;;;;10395740;28;20387;-79
2023/03/25 10:39:32;;;;;;;10.63;7.87;;;10.10;99.90;;;;;;10394192;28;20208;-78
2023/03/25 10:44:54;;;;;;;7.67;4.10;;;10.10;99.90;;;;;;10393440;28;20310;-77
2023/03/25 10:50:16;;;;;;;6.67;3.70;;;10.10;99.90;;;;;;10393636;28;20390;-78
2023/03/25 10:55:40;;;;;;;9.50;5.63;;;10.30;99.90;;;;;;10393448;28;20193;-79
2023/03/25 11:01:13;;;;;;;5.47;3.43;;;11.60;99.90;;;;;;10395489;28;20427;-78
2023/03/25 11:06:41;;;;;;;12.07;8.90;;;13.80;99.90;;;;;;10434731;28;20221;-78
2023/03/25 11:12:05;;;;;;;5.90;3.60;;;13.80;99.90;;;;;;10443506;28;20366;-78
2023/03/25 11:17:26;;;;;;;5.63;2.93;;;13.60;99.90;;;;;;10426395;28;20212;-78
2023/03/25 11:22:52;;;;;;;5.80;3.30;;;12.90;99.90;;;;;;10404872;28;20213;-78
2023/03/25 11:28:38;;;;;;;9.13;3.93;;;12.30;99.90;;;;;;10442795;28;20252;-77
2023/03/25 11:34:03;;;;;;;8.07;3.37;;;12.50;99.90;;;;;;10441853;28;20214;-78
2023/03/25 11:39:30;;;;;;;6.17;3.43;;;13.60;99.90;;;;;;10446283;28;20200;-78
2023/03/25 11:44:54;;;;;;;7.83;4.43;;;14.20;99.90;;;;;;10443631;28;20235;-77
2023/03/25 11:50:22;;;;;;;7.77;3.20;;;14.70;99.90;;;;;;10428442;28;20254;-77
2023/03/25 11:55:54;;;;;;;7.97;3.80;;;14.10;99.90;;;;;;10443662;28;20214;-77
2023/03/25 12:01:24;;;;;;;25.70;13.63;;;13.50;99.90;;;;;;10440926;28;20200;-77
2023/03/25 12:06:51;;;;;;;9.18;4.68;;;14.00;99.90;;;;;;10441163;28;20274;-77
2023/03/25 12:12:12;;;;;;;5.57;2.83;;;13.80;99.90;;;;;;10443049;28;20199;-77
2023/03/25 12:17:39;;;;;;;3.25;2.08;;;14.30;99.90;;;;;;10421455;28;20204;-77
2023/03/25 12:23:29;;;;;;;7.38;3.35;;;15.00;99.00;;;;;;10403778;28;20191;-78
2023/03/25 12:28:53;;;;;;;9.85;2.97;;;14.90;98.90;;;;;;10441074;28;20250;-78
2023/03/25 12:34:38;;;;;;;3.13;2.10;;;14.60;98.10;;;;;;10426003;28;20209;-77
2023/03/25 12:40:15;;;;;;;6.63;3.43;;;14.50;99.00;;;;;;10439913;28;20210;-78
2023/03/25 12:46:07;;;;;;;4.23;2.00;;;14.40;99.50;;;;;;10439859;28;20268;-77
2023/03/25 12:52:10;;;;;;;5.93;2.60;;;14.00;99.90;;;;;;10423801;28;20449;-78
2023/03/25 12:58:05;;;;;;;6.50;3.43;;;14.00;99.90;;;;;;10462469;28;20211;-77
2023/03/25 13:04:07;;;;;;;6.77;2.40;;;13.90;99.90;;;;;;10445320;28;20231;-78
2023/03/25 13:09:57;;;;;;;6.17;3.37;;;13.30;99.90;;;;;;10462786;28;20287;-77
2023/03/25 13:15:44;;;;;;;2.40;1.40;;;13.10;99.90;;;;;;10346332;28;20224;-77
2023/03/25 13:21:19;;;;;;;9.20;2.60;;;12.80;99.90;;;;;;10314188;28;20227;-78
2023/03/25 13:26:43;;;;;;;4.53;2.30;;;12.50;99.90;;;;;;10344357;28;20235;-77
2023/03/25 13:32:16;;;;;;;5.63;4.40;;;12.30;99.90;;;;;;10338830;28;20532;-77
2023/03/25 13:37:51;;;;;;;7.60;3.93;;;12.10;99.90;;;;;;10295806;28;20239;-77
2023/03/25 13:43:35;;;;;;;6.80;4.10;;;12.00;99.90;;;;;;10297876;28;20237;-77
2023/03/25 13:49:19;;;;;;;14.00;5.37;;;11.80;99.90;;;;;;10326193;28;20238;-78
2023/03/25 13:54:54;;;;;;;7.03;3.93;;;11.40;99.90;;;;;;10408524;28;20200;-77
2023/03/25 14:00:41;;;;;;;7.40;3.90;;;11.60;99.90;;;;;;10395783;28;20485;-78
2023/03/25 14:06:24;;;;;;;7.40;4.17;;;11.80;99.90;;;;;;10437463;28;20202;-78
2023/03/25 14:11:54;;;;;;;7.00;4.00;;;11.80;99.90;;;;;;10435735;28;20243;-77
2023/03/25 14:17:17;;;;;;;5.63;3.80;;;11.80;99.90;;;;;;10409916;28;20253;-77
2023/03/25 14:22:40;;;;;;;5.97;4.20;;;11.80;99.90;;;;;;10393518;28;20398;-77
2023/03/25 14:28:03;;;;;;;4.00;2.87;;;11.80;99.90;;;;;;10394539;28;20231;-79
2023/03/25 14:33:24;;;;;;;2.13;1.50;;;11.90;99.90;;;;;;10394410;28;20485;-78
2023/03/25 14:38:55;;;;;;;2.20;1.03;;;12.10;99.90;;;;;;10401133;28;20418;-77
2023/03/25 14:44:18;;;;;;;2.43;1.00;;;12.30;99.90;;;;;;10400919;28;20239;-77
2023/03/25 14:49:52;;;;;;;2.57;1.17;;;12.40;99.90;;;;;;10387294;28;20235;-78
2023/03/25 14:55:20;;;;;;;4.33;2.20;;;12.30;99.90;;;;;;10401272;28;20434;-78
2023/03/25 15:00:48;;;;;;;10.67;4.77;;;12.30;99.90;;;;;;10386430;28;20198;-78
2023/03/25 15:06:18;;;;;;;23.97;12.27;;;12.20;99.90;;;;;;10431259;28;20295;-77
2023/03/25 15:11:43;;;;;;;21.43;11.17;;;12.20;99.90;;;;;;10442356;28;20300;-78
2023/03/25 15:17:09;;;;;;;17.67;7.77;;;12.10;99.90;;;;;;10409385;28;20232;-77
2023/03/25 15:22:30;;;;;;;7.47;4.63;;;12.20;99.90;;;;;;10440997;28;20230;-77
2023/03/25 15:28:06;;;;;;;3.80;2.27;;;12.10;99.90;;;;;;10441069;28;20222;-77
2023/03/25 15:33:37;;;;;;;5.77;2.27;;;11.80;99.90;;;;;;10441185;28;20266;-77
2023/03/25 15:39:28;;;;;;;10.90;4.53;;;11.70;99.90;;;;;;10440036;28;20435;-78
2023/03/25 15:45:14;;;;;;;2.60;1.47;;;11.60;99.90;;;;;;10426363;28;20230;-77
2023/03/25 15:50:42;;;;;;;6.67;2.53;;;11.50;99.90;;;;;;10439220;28;20280;-79
2023/03/25 15:56:32;;;;;;;2.37;1.60;;;11.10;99.90;;;;;;10425848;28;20233;-77
2023/03/25 16:01:54;;;;;;;2.07;1.40;;;10.60;99.90;;;;;;10439213;28;20194;-77
2023/03/25 16:07:19;;;;;;;2.00;1.50;;;10.30;99.90;;;;;;10439814;28;20229;-78
2023/03/25 16:12:42;;;;;;;3.13;1.30;;;10.10;99.90;;;;;;10438862;28;20191;-77
2023/03/25 16:18:06;;;;;;;1.53;0.87;;;9.90;99.90;;;;;;10417682;28;20197;-77
2023/03/25 16:23:31;;;;;;;1.23;0.90;;;9.90;99.90;;;;;;10438279;28;20192;-77
2023/03/25 16:28:52;;;;;;;2.30;1.40;;;9.80;99.90;;;;;;10438621;28;20224;-77
2023/03/25 16:34:14;;;;;;;2.43;1.40;;;9.70;99.90;;;;;;10438966;28;20217;-77
2023/03/25 16:39:51;;;;;;;3.50;1.60;;;9.70;99.90;;;;;;10438687;28;20199;-77
2023/03/25 16:45:14;;;;;;;6.07;3.10;;;9.60;99.90;;;;;;10438273;28;20240;-78
2023/03/25 16:50:36;;;;;;;6.87;4.00;;;9.60;99.90;;;;;;10438076;28;20227;-76
2023/03/25 16:56:21;;;;;;;23.80;12.50;;;9.50;99.90;;;;;;10437696;28;20239;-77
2023/03/25 17:01:55;;;;;;;28.70;14.27;;;9.50;99.90;;;;;;10423230;28;20200;-77
2023/03/25 17:07:26;;;;;;;25.13;13.30;;;9.40;99.90;;;;;;10436674;28;20407;-77
2023/03/25 17:13:09;;;;;;;47.00;20.83;;;9.30;99.90;;;;;;10436898;28;20201;-77
2023/03/25 17:18:31;;;;;;;38.30;18.37;;;9.20;99.90;;;;;;10414714;28;20213;-78
2023/03/25 17:23:54;;;;;;;49.70;26.90;;;9.20;99.90;;;;;;10436812;28;20195;-77
2023/03/25 17:29:17;;;;;;;101.13;52.57;;;9.20;99.90;;;;;;10436582;28;20237;-77
2023/03/25 17:34:44;;;;;;;155.93;68.83;;;9.20;99.90;;;;;;10436719;28;20283;-77
2023/03/25 17:40:11;;;;;;;79.37;32.80;;;9.10;99.90;;;;;;10435227;28;20199;-77
2023/03/25 17:45:32;;;;;;;46.83;21.70;;;9.10;99.90;;;;;;10435287;28;20207;-78
2023/03/25 17:50:55;;;;;;;25.77;13.80;;;8.90;99.90;;;;;;10435537;28;20218;-76
2023/03/25 17:56:20;;;;;;;12.63;6.00;;;8.90;99.90;;;;;;10434814;28;20238;-77
2023/03/25 18:01:42;;;;;;;8.83;5.63;;;8.80;99.90;;;;;;10435015;28;20286;-77
2023/03/25 18:07:03;;;;;;;11.43;6.53;;;8.90;99.90;;;;;;10434167;28;20439;-76
2023/03/25 18:12:25;;;;;;;27.43;14.07;;;8.80;99.90;;;;;;10440788;28;20197;-77
2023/03/25 18:17:48;;;;;;;51.53;25.73;;;8.80;99.90;;;;;;10422309;28;20201;-78
2023/03/25 18:23:10;;;;;;;31.30;17.50;;;8.80;99.90;;;;;;10442679;28;20191;-76
2023/03/25 18:28:33;;;;;;;30.73;15.73;;;8.70;99.90;;;;;;10442740;28;20226;-77
2023/03/25 18:33:55;;;;;;;34.63;17.30;;;8.60;99.90;;;;;;10443674;28;20192;-77
2023/03/25 18:39:19;;;;;;;44.70;19.10;;;8.60;99.90;;;;;;10443194;28;20422;-77
2023/03/25 18:44:41;;;;;;;55.53;25.13;;;8.50;99.90;;;;;;10443296;28;20246;-77
2023/03/25 18:50:30;;;;;;;43.37;17.90;;;8.40;99.90;;;;;;10442530;28;20228;-76
2023/03/25 18:55:53;;;;;;;44.67;21.43;;;8.30;99.90;;;;;;10442502;28;20221;-77
2023/03/25 19:01:15;;;;;;;27.10;14.67;;;8.20;99.90;;;;;;10442526;28;20245;-77
2023/03/25 19:06:38;;;;;;;45.10;20.27;;;8.20;99.90;;;;;;10440701;28;20228;-77
2023/03/25 19:11:58;;;;;;;32.30;15.80;;;8.10;99.90;;;;;;10441044;28;20198;-76
2023/03/25 19:17:19;;;;;;;25.90;12.70;;;8.00;99.90;;;;;;10421961;28;20276;-78
2023/03/25 19:22:40;;;;;;;20.40;10.13;;;8.00;99.90;;;;;;10398053;28;20233;-77
2023/03/25 19:28:02;;;;;;;18.57;9.53;;;7.90;99.90;;;;;;10441448;28;20227;-77
2023/03/25 19:33:23;;;;;;;21.20;11.70;;;7.80;99.90;;;;;;10441301;28;20200;-78
2023/03/25 19:38:44;;;;;;;36.67;15.87;;;7.70;99.90;;;;;;10441233;28;20200;-78
2023/03/25 19:44:05;;;;;;;42.57;18.40;;;7.70;99.90;;;;;;10439530;28;20241;-78
2023/03/25 19:49:26;;;;;;;16.73;10.67;;;7.70;99.90;;;;;;10439648;28;20421;-76
2023/03/25 19:54:56;;;;;;;18.33;9.23;;;7.70;99.90;;;;;;10440479;28;20257;-77
2023/03/25 20:00:21;;;;;;;39.03;13.77;;;7.60;99.90;;;;;;10440064;28;20197;-76
2023/03/25 20:05:42;;;;;;;46.93;16.00;;;7.50;99.90;;;;;;10438279;28;20213;-76
2023/03/25 20:11:10;;;;;;;47.63;16.80;;;7.50;99.90;;;;;;10439764;28;20562;-77
2023/03/25 20:16:33;;;;;;;43.37;16.70;;;7.50;99.90;;;;;;10425250;28;20474;-77
2023/03/25 20:21:54;;;;;;;42.63;16.07;;;7.40;99.90;;;;;;10433673;28;20210;-77
2023/03/25 20:27:15;;;;;;;29.43;13.63;;;7.30;99.90;;;;;;10437355;28;20565;-76
2023/03/25 20:32:36;;;;;;;22.00;11.93;;;7.30;99.90;;;;;;10438365;28;20269;-76
2023/03/25 20:38:00;;;;;;;22.13;10.50;;;7.20;99.90;;;;;;10437960;28;20197;-77
2023/03/25 20:43:21;;;;;;;24.03;11.70;;;7.20;99.90;;;;;;10438404;28;20230;-77
2023/03/25 20:48:43;;;;;;;18.90;8.47;;;7.10;99.90;;;;;;10437941;28;20295;-76
2023/03/25 20:54:04;;;;;;;24.30;8.63;;;7.10;99.90;;;;;;10422930;28;20225;-77
2023/03/25 20:59:26;;;;;;;26.93;11.73;;;7.00;99.90;;;;;;10436986;28;20566;-77
2023/03/25 21:04:47;;;;;;;26.87;9.43;;;7.00;99.90;;;;;;10437230;28;20480;-77
2023/03/25 21:10:08;;;;;;;26.20;10.67;;;6.90;99.90;;;;;;10422216;28;20270;-76
2023/03/25 21:15:30;;;;;;;25.53;11.33;;;6.90;99.90;;;;;;10431525;28;20204;-77
2023/03/25 21:20:53;;;;;;;22.00;9.80;;;6.90;99.90;;;;;;10397394;28;20207;-76
2023/03/25 21:26:16;;;;;;;16.73;9.17;;;7.00;99.90;;;;;;10371489;28;20383;-77
2023/03/25 21:31:37;;;;;;;13.03;7.57;;;7.00;99.90;;;;;;10395938;28;20229;-77
2023/03/25 21:36:59;;;;;;;19.00;9.53;;;7.10;99.90;;;;;;10394410;28;20217;-77
2023/03/25 21:42:20;;;;;;;17.87;8.93;;;7.10;99.90;;;;;;10395284;28;20237;-76
2023/03/25 21:47:53;;;;;;;17.57;9.30;;;7.10;99.90;;;;;;10394581;28;20291;-76
2023/03/25 21:53:17;;;;;;;29.97;19.30;;;7.20;99.90;;;;;;10395134;28;20204;-77
2023/03/25 21:58:38;;;;;;;30.40;16.57;;;7.20;99.90;;;;;;10394109;28;20353;-77
2023/03/25 22:04:02;;;;;;;24.77;10.43;;;7.20;99.90;;;;;;10406665;28;20212;-76
2023/03/25 22:09:23;;;;;;;21.10;13.60;;;7.30;99.90;;;;;;10435459;28;20239;-77
2023/03/25 22:14:44;;;;;;;14.27;8.07;;;7.30;99.90;;;;;;10434208;28;20420;-77
2023/03/25 22:20:07;;;;;;;13.60;7.77;;;7.30;99.90;;;;;;10435513;28;20206;-77
2023/03/25 22:25:28;;;;;;;11.97;6.40;;;7.30;99.90;;;;;;10435283;28;20193;-77
2023/03/25 22:30:49;;;;;;;8.80;5.50;;;7.20;99.90;;;;;;10435118;28;20226;-77
2023/03/25 22:36:13;;;;;;;34.93;19.47;;;7.20;99.90;;;;;;10435398;28;20419;-77
2023/03/25 22:41:34;;;;;;;63.13;43.27;;;7.20;99.90;;;;;;10435310;28;20536;-76
2023/03/25 22:46:55;;;;;;;51.13;37.60;;;7.20;99.90;;;;;;10420028;28;20201;-77
2023/03/25 22:52:16;;;;;;;25.50;18.73;;;7.20;99.90;;;;;;10434744;28;20429;-76
2023/03/25 22:57:37;;;;;;;12.23;10.03;;;7.20;99.90;;;;;;10437664;28;20491;-76
2023/03/25 23:02:58;;;;;;;17.97;12.30;;;7.20;99.90;;;;;;10442455;28;20205;-77
2023/03/25 23:08:19;;;;;;;12.30;9.10;;;7.20;99.90;;;;;;10442346;28;20284;-77
2023/03/25 23:13:45;;;;;;;16.40;9.33;;;7.20;99.90;;;;;;10441710;28;20188;-77
2023/03/25 23:19:08;;;;;;;18.23;12.77;;;7.20;99.90;;;;;;10420356;28;20202;-77
2023/03/25 23:24:32;;;;;;;12.47;7.10;;;7.20;99.90;;;;;;10441637;28;20193;-76
2023/03/25 23:29:53;;;;;;;10.73;6.03;;;7.20;99.90;;;;;;10441227;28;20225;-77
2023/03/25 23:35:17;;;;;;;5.73;4.23;;;7.10;99.90;;;;;;10440367;28;20377;-77
2023/03/25 23:40:39;;;;;;;9.57;5.27;;;7.10;99.90;;;;;;10440733;28;20204;-77
2023/03/25 23:46:00;;;;;;;13.00;6.27;;;7.10;99.90;;;;;;10440973;28;20203;-77
2023/03/25 23:51:24;;;;;;;18.13;9.43;;;7.10;99.90;;;;;;10440553;28;20216;-76
2023/03/25 23:56:45;;;;;;;11.30;5.93;;;7.10;99.90;;;;;;10439088;28;20217;-77
